Time;durP1;ratioP1;P1;durP2;ratioP2;P2;SDS_P1;SDS_P2;PMS_P1;PMS_P2;Temp;Humidity;BMP_temperature;BMP_pressure;BME280_temperature;BME280_humidity;BME280_pressure;Samples;Min_cycle;Max_cycle;Signal;HPM_P1;HPM_P2
2022/09/19 00:03:31;;;;;;;6.45;1.30;;;;;;;8.45;84.29;100172.59;10377442;28;20093;-79
2022/09/19 00:08:36;;;;;;;;;;;;;;;8.49;83.99;100185.66;10386942;28;20052;-80
2022/09/19 00:13:45;;;;;;;6.95;2.05;;;;;;;8.46;85.27;100174.34;10386013;28;20024;-79
2022/09/19 00:18:48;;;;;;;8.90;3.08;;;;;;;8.10;87.26;100176.09;10379228;28;20095;-80
2022/09/19 00:29:15;;;;;;;13.50;2.93;;;;;;;8.22;87.07;100193.06;10391824;28;20259;-79
2022/09/19 00:34:19;;;;;;;8.10;2.50;;;;;;;8.44;87.12;100201.19;10399582;28;20126;-79
2022/09/19 00:39:23;;;;;;;11.88;2.75;;;;;;;8.35;87.07;100193.84;10397340;28;20076;-78
2022/09/19 00:44:51;;;;;;;14.57;3.13;;;;;;;8.32;86.77;100204.78;10379666;28;20511;-80
2022/09/19 00:49:57;;;;;;;11.30;2.60;;;;;;;8.50;86.59;100208.81;10412413;28;20049;-79
2022/09/19 00:55:02;;;;;;;10.18;4.07;;;;;;;8.74;85.12;100216.78;10405744;28;20056;-78
2022/09/19 01:00:06;;;;;;;9.43;3.17;;;;;;;8.24;87.22;100228.59;10411911;28;20561;-80
2022/09/19 01:05:10;;;;;;;10.73;2.85;;;;;;;8.54;86.48;100234.38;10435937;23;20038;-80
2022/09/19 01:10:36;;;;;;;16.60;3.40;;;;;;;8.48;87.15;100229.47;10433111;28;20128;-79
2022/09/19 01:15:53;;;;;;;9.80;2.95;;;;;;;8.29;87.27;100234.47;10430690;28;20498;-80
2022/09/19 01:26:47;;;;;;;13.23;3.60;;;;;;;8.36;86.65;100239.25;10436239;28;20041;-79
2022/09/19 01:31:55;;;;;;;9.90;3.20;;;;;;;8.53;85.86;100240.69;10419934;28;20061;-79
2022/09/19 01:37:05;;;;;;;4.32;2.03;;;;;;;8.32;86.44;100248.47;10423542;28;20042;-79
2022/09/19 01:42:13;;;;;;;10.57;3.13;;;;;;;8.52;86.07;100247.00;10437229;28;20045;-80
2022/09/19 01:47:23;;;;;;;9.18;3.63;;;;;;;8.33;88.07;100250.16;10438277;28;20105;-79
2022/09/19 01:52:46;;;;;;;16.20;3.72;;;;;;;8.52;86.92;100248.84;10448274;28;20045;-79
2022/09/19 01:57:57;;;;;;;12.65;4.57;;;;;;;8.72;86.21;100256.25;10417531;28;20053;-79
2022/09/19 02:03:12;;;;;;;19.73;3.88;;;;;;;8.83;85.77;100268.78;10424160;28;20045;-79
2022/09/19 02:08:30;;;;;;;13.73;5.32;;;;;;;8.32;88.01;100277.06;10431921;28;20053;-80
2022/09/19 02:13:40;;;;;;;12.43;4.00;;;;;;;8.43;87.07;100285.13;10443081;28;20050;-78
2022/09/19 02:18:53;;;;;;;19.92;4.15;;;;;;;8.59;87.58;100283.06;10433994;28;20052;-78
2022/09/19 02:24:05;;;;;;;15.77;4.68;;;;;;;8.64;87.63;100284.53;10434035;28;20072;-80
2022/09/19 02:29:12;;;;;;;14.80;4.00;;;;;;;9.04;85.74;100291.28;10423485;28;20126;-79
2022/09/19 02:34:17;;;;;;;17.45;4.43;;;;;;;9.09;85.20;100282.06;10444962;28;20202;-79
2022/09/19 02:39:26;;;;;;;14.73;4.13;;;;;;;9.13;84.81;100286.19;10439234;28;20128;-79
2022/09/19 02:44:55;;;;;;;12.50;4.45;;;;;;;8.76;86.55;100297.03;10428850;28;20111;-80
2022/09/19 02:50:07;;;;;;;17.70;4.38;;;;;;;9.18;85.02;100310.81;10439323;28;20034;-80
2022/09/19 02:55:13;;;;;;;15.73;3.87;;;;;;;8.75;86.90;100297.97;10439343;28;20073;-81
2022/09/19 03:00:17;;;;;;;21.75;6.20;;;;;;;8.91;87.45;100313.75;10436119;28;20060;-81
2022/09/19 03:05:22;;;;;;;13.02;5.03;;;;;;;8.76;88.28;100308.59;10412792;28;20041;-80
2022/09/19 03:10:31;;;;;;;17.40;5.18;;;;;;;8.48;90.84;100307.09;10434442;28;20046;-80
2022/09/19 03:15:58;;;;;;;20.33;5.70;;;;;;;8.79;89.45;100315.53;10434439;28;20057;-81
2022/09/19 03:21:11;;;;;;;21.30;5.78;;;;;;;8.79;89.50;100310.19;10425549;28;20047;-81
2022/09/19 03:26:21;;;;;;;23.50;6.43;;;;;;;8.48;90.33;100312.47;10444580;28;20070;-81
2022/09/19 03:31:27;;;;;;;16.60;4.78;;;;;;;8.40;91.67;100313.00;10432120;28;20050;-80
2022/09/19 03:36:34;;;;;;;21.70;5.95;;;;;;;8.76;88.91;100318.44;10437323;28;20041;-81
2022/09/19 03:41:38;;;;;;;18.60;6.60;;;;;;;8.60;89.64;100324.09;10444738;28;20485;-80
2022/09/19 03:46:46;;;;;;;27.83;6.38;;;;;;;8.51;90.27;100322.94;10453875;28;20133;-80
2022/09/19 03:51:51;;;;;;;18.35;5.70;;;;;;;8.66;89.33;100337.00;10441472;28;20106;-81
2022/09/19 03:56:54;;;;;;;15.10;5.07;;;;;;;8.62;89.90;100340.91;10438519;28;20073;-80
2022/09/19 04:01:59;;;;;;;20.58;6.40;;;;;;;8.58;90.06;100351.00;10448194;28;20119;-80
2022/09/19 04:07:04;;;;;;;18.20;6.53;;;;;;;8.74;89.58;100349.84;10447648;28;20045;-80
2022/09/19 04:12:08;;;;;;;18.83;6.45;;;;;;;8.65;89.95;100356.72;10444789;28;20100;-80
2022/09/19 04:17:14;;;;;;;25.33;7.40;;;;;;;9.10;88.40;100364.13;10439696;28;20044;-79
2022/09/19 04:22:31;;;;;;;22.13;6.30;;;;;;;8.72;90.26;100374.06;10447003;28;20041;-79
2022/09/19 04:27:53;;;;;;;21.98;6.60;;;;;;;8.70;89.57;100370.66;10450069;28;20589;-80
2022/09/19 04:32:58;;;;;;;18.77;5.65;;;;;;;8.78;89.97;100368.25;10434938;28;20048;-80
2022/09/19 04:38:02;;;;;;;27.98;7.32;;;;;;;8.98;89.62;100369.44;10439225;28;20076;-81
2022/09/19 04:43:05;;;;;;;20.95;6.07;;;;;;;9.09;88.12;100382.06;10446036;28;20110;-81
2022/09/19 04:48:08;;;;;;;18.90;6.25;;;;;;;8.99;88.99;100381.88;10437439;28;20049;-81
2022/09/19 04:53:13;;;;;;;22.67;5.88;;;;;;;8.91;89.61;100389.63;10451026;28;20046;-81
2022/09/19 04:58:22;;;;;;;23.55;5.85;;;;;;;9.06;88.64;100399.22;10442686;28;20045;-80
2022/09/19 05:03:26;;;;;;;20.05;5.32;;;;;;;9.24;87.72;100399.66;10455069;28;20379;-81
2022/09/19 05:08:33;;;;;;;29.55;7.25;;;;;;;9.25;87.70;100401.38;10449962;28;20053;-80
2022/09/19 05:13:44;;;;;;;19.90;5.68;;;;;;;9.02;88.96;100407.59;10460887;28;20055;-81
2022/09/19 05:18:53;;;;;;;17.83;5.55;;;;;;;9.15;88.75;100408.38;10466883;28;20060;-80
2022/09/19 05:23:57;;;;;;;22.30;5.32;;;;;;;9.55;87.05;100415.25;10467943;28;20044;-81
2022/09/19 05:29:00;;;;;;;23.63;6.47;;;;;;;9.21;88.14;100415.09;10457989;28;20103;-80
2022/09/19 05:34:11;;;;;;;15.88;5.88;;;;;;;9.35;87.84;100425.69;10461157;28;20127;-81
2022/09/19 05:39:17;;;;;;;22.35;6.97;;;;;;;9.61;86.65;100422.84;10462855;28;20048;-80
2022/09/19 05:44:55;;;;;;;17.45;5.60;;;;;;;8.87;89.86;100425.66;10439769;28;20055;-80
2022/09/19 05:49:58;;;;;;;19.60;5.63;;;;;;;9.61;87.14;100436.25;10461239;28;20131;-81
2022/09/19 05:55:02;;;;;;;19.75;5.82;;;;;;;9.59;86.68;100440.84;10438727;28;20048;-80
2022/09/19 06:00:37;;;;;;;23.73;5.80;;;;;;;9.07;89.33;100437.56;10449091;28;20084;-80
2022/09/19 06:05:43;;;;;;;22.33;6.68;;;;;;;9.57;88.41;100450.84;10506226;28;20064;-80
2022/09/19 06:10:48;;;;;;;24.05;6.03;;;;;;;9.46;89.68;100451.66;10511081;28;20036;-80
2022/09/19 06:15:53;;;;;;;23.15;6.88;;;;;;;9.72;87.86;100449.69;10505660;28;20045;-79
2022/09/19 06:21:18;;;;;;;23.48;6.35;;;;;;;10.27;86.30;100452.63;10457636;28;20068;-79
2022/09/19 06:26:24;;;;;;;20.80;6.35;;;;;;;10.64;85.03;100461.31;10407222;28;20049;-79
2022/09/19 06:31:28;;;;;;;18.75;6.50;;;;;;;10.24;86.50;100469.84;10441778;28;20044;-79
2022/09/19 06:36:43;;;;;;;20.65;4.90;;;;;;;10.38;86.02;100483.03;10455538;28;20537;-80
2022/09/19 06:41:48;;;;;;;19.30;4.85;;;;;;;10.49;84.49;100476.81;10442962;28;20477;-79
2022/09/19 06:47:07;;;;;;;18.40;4.35;;;;;;;10.71;84.29;100492.06;10450501;28;20112;-78
2022/09/19 06:52:28;;;;;;;23.75;5.50;;;;;;;11.00;83.28;100491.56;10431260;28;20049;-77
2022/09/19 06:57:32;;;;;;;16.88;5.05;;;;;;;11.01;83.55;100491.44;10450071;28;20029;-79
2022/09/19 07:02:36;;;;;;;17.20;3.90;;;;;;;10.49;84.84;100494.75;10409269;28;20136;-79
2022/09/19 07:07:40;;;;;;;13.07;4.07;;;;;;;10.71;84.31;100502.81;10434131;28;20069;-78
2022/09/19 07:12:51;;;;;;;19.10;4.38;;;;;;;11.39;82.23;100505.44;10437581;28;20048;-79
2022/09/19 07:17:59;;;;;;;17.35;3.70;;;;;;;11.64;80.25;100499.72;10432683;28;20563;-79
2022/09/19 07:23:05;;;;;;;15.60;4.20;;;;;;;11.81;80.10;100505.53;10443346;28;20056;-79
2022/09/19 07:28:31;;;;;;;15.30;3.25;;;;;;;11.94;78.82;100511.56;10445080;28;20063;-79
2022/09/19 07:33:34;;;;;;;11.43;3.42;;;;;;;12.28;78.69;100514.06;10454988;28;20526;-79
2022/09/19 07:38:36;;;;;;;9.38;2.90;;;;;;;11.95;78.66;100513.28;10431435;28;20424;-79
2022/09/19 07:43:48;;;;;;;11.88;3.25;;;;;;;10.95;82.55;100526.88;10435451;28;20140;-78
2022/09/19 07:49:10;;;;;;;15.98;3.22;;;;;;;11.66;80.23;100530.06;10435348;28;20565;-79
2022/09/19 07:54:40;;;;;;;11.10;3.15;;;;;;;11.89;80.11;100528.13;10446971;28;20072;-78
2022/09/19 07:59:45;;;;;;;16.58;3.33;;;;;;;12.79;77.47;100532.97;10434973;28;20067;-78
2022/09/19 08:04:48;;;;;;;16.20;3.10;;;;;;;12.15;76.39;100539.38;10441313;28;20071;-79
2022/09/19 08:09:52;;;;;;;8.85;2.60;;;;;;;12.44;77.98;100537.88;10428689;28;20045;-78
2022/09/19 08:15:01;;;;;;;13.48;3.00;;;;;;;12.49;77.01;100549.97;10426077;28;20050;-78
2022/09/19 08:20:05;;;;;;;13.70;2.55;;;;;;;12.25;77.46;100541.28;10437112;28;20049;-78
2022/09/19 08:25:16;;;;;;;12.15;2.50;;;;;;;13.06;75.47;100553.09;10441975;28;20548;-78
2022/09/19 08:30:21;;;;;;;10.15;1.67;;;;;;;13.41;72.84;100563.44;10437996;28;20044;-78
2022/09/19 08:35:27;;;;;;;9.20;1.90;;;;;;;12.64;74.92;100561.25;10424891;28;20064;-77
2022/09/19 08:40:32;;;;;;;9.50;1.83;;;;;;;12.93;75.63;100571.34;10426486;28;20073;-78
2022/09/19 08:45:51;;;;;;;10.30;1.95;;;;;;;12.41;75.80;100575.88;10454248;28;20044;-78
2022/09/19 08:51:02;;;;;;;7.53;1.77;;;;;;;12.42;73.82;100567.63;10434070;28;20060;-77
2022/09/19 08:56:06;;;;;;;6.60;1.50;;;;;;;12.68;72.06;100573.47;10433487;28;20037;-78
2022/09/19 09:01:11;;;;;;;7.55;1.92;;;;;;;12.75;73.07;100573.78;10458613;28;20076;-78
2022/09/19 09:06:40;;;;;;;10.65;2.65;;;;;;;13.39;71.22;100578.06;10463999;28;20079;-77
2022/09/19 09:11:59;;;;;;;10.50;2.35;;;;;;;13.42;70.83;100580.47;10446241;28;20060;-77
2022/09/19 09:17:18;;;;;;;13.50;2.05;;;;;;;13.34;70.88;100591.94;10438390;28;20144;-78
2022/09/19 09:22:25;;;;;;;10.35;1.85;;;;;;;13.61;70.63;100590.47;10429876;28;20601;-77
2022/09/19 09:28:02;;;;;;;13.77;2.28;;;;;;;12.97;72.77;100595.22;10427734;28;20055;-77
2022/09/19 09:33:25;;;;;;;14.25;2.75;;;;;;;13.33;70.66;100595.63;10440136;28;20417;-78
2022/09/19 09:38:32;;;;;;;9.18;2.10;;;;;;;13.92;69.55;100577.72;10443255;28;20045;-77
2022/09/19 09:43:57;;;;;;;7.40;1.80;;;;;;;14.38;68.55;100570.72;10453449;28;20077;-78
2022/09/19 09:49:01;;;;;;;9.90;1.90;;;;;;;13.84;69.08;100572.16;10429876;28;20076;-75
2022/09/19 10:05:33;;;;;;;11.65;1.63;;;;;;;12.90;69.74;100580.53;10452918;28;20103;-77
2022/09/19 10:10:39;;;;;;;11.30;2.38;;;;;;;14.03;69.09;100574.03;10427963;28;20041;-78
2022/09/19 10:15:43;;;;;;;11.77;2.35;;;;;;;14.81;66.02;100570.22;10436137;28;20041;-77
2022/09/19 10:20:54;;;;;;;14.82;2.13;;;;;;;15.27;64.54;100571.16;10423785;28;20056;-77
2022/09/19 10:26:02;;;;;;;8.63;1.73;;;;;;;14.04;65.92;100557.69;10417633;28;20415;-77
2022/09/19 10:31:07;;;;;;;5.55;1.33;;;;;;;15.38;62.78;100551.19;10416484;28;20502;-77
2022/09/19 10:36:20;;;;;;;11.18;1.90;;;;;;;14.84;62.75;100555.56;10434670;28;20045;-76
2022/09/19 10:41:26;;;;;;;6.55;2.08;;;;;;;15.08;62.39;100556.88;10430338;28;20422;-77
2022/09/19 10:46:35;;;;;;;10.55;1.27;;;;;;;16.44;59.46;100556.78;10434209;28;20152;-77
2022/09/19 10:52:03;;;;;;;6.45;1.67;;;;;;;15.14;62.03;100530.09;10424687;28;20107;-77
2022/09/19 10:57:25;;;;;;;8.43;1.30;;;;;;;16.19;59.20;100514.22;10414025;28;20421;-77
2022/09/19 11:02:28;;;;;;;6.75;1.60;;;;;;;16.16;57.24;100528.94;10427404;28;20049;-77
2022/09/19 11:07:46;;;;;;;8.88;1.55;;;;;;;17.08;57.49;100537.47;10433568;28;20029;-77
2022/09/19 11:12:49;;;;;;;8.93;1.60;;;;;;;17.02;56.44;100538.97;10436238;28;20458;-77
2022/09/19 11:18:03;;;;;;;10.52;1.88;;;;;;;16.63;55.56;100534.03;10423436;28;20041;-77
2022/09/19 11:23:36;;;;;;;11.02;1.75;;;;;;;17.93;53.98;100530.06;10406489;28;20038;-77
2022/09/19 11:28:51;;;;;;;7.65;1.55;;;;;;;18.30;52.54;100543.19;10422187;28;20467;-79
2022/09/19 11:33:59;;;;;;;11.25;2.03;;;;;;;17.86;53.23;100538.06;10436342;28;20049;-77
2022/09/19 11:39:51;;;;;;;6.13;1.30;;;;;;;17.93;51.83;100530.06;10452368;28;20114;-78
2022/09/19 11:45:09;;;;;;;6.50;1.25;;;;;;;18.15;49.70;100536.72;10442506;28;20095;-77
2022/09/19 11:50:30;;;;;;;4.22;1.27;;;;;;;16.25;53.84;100543.41;10414074;28;20037;-77
2022/09/19 11:55:43;;;;;;;7.15;1.38;;;;;;;15.70;55.98;100549.84;10414970;28;20053;-77
2022/09/19 12:01:03;;;;;;;7.68;1.70;;;;;;;14.97;59.69;100544.38;10410010;28;20074;-77
2022/09/19 12:06:20;;;;;;;6.82;1.17;;;;;;;16.11;57.00;100556.50;10415406;28;20068;-77
2022/09/19 12:11:34;;;;;;;2.67;0.65;;;;;;;15.93;54.94;100542.97;10419664;28;20418;-77
2022/09/19 12:16:41;;;;;;;6.25;1.27;;;;;;;16.58;53.06;100558.91;10425066;28;20051;-77
2022/09/19 12:21:54;;;;;;;9.00;1.15;;;;;;;17.38;51.52;100555.09;10453577;28;20068;-77
2022/09/19 12:27:04;;;;;;;6.47;1.27;;;;;;;18.92;46.82;100550.75;10456399;28;20045;-77
2022/09/19 12:32:15;;;;;;;7.50;1.15;;;;;;;20.00;46.52;100550.03;10433098;28;20045;-77
2022/09/19 12:37:30;;;;;;;7.28;1.27;;;;;;;18.89;47.40;100547.53;10436427;28;20046;-77
2022/09/19 12:42:44;;;;;;;10.27;2.05;;;;;;;17.31;51.15;100560.34;10418372;28;20041;-76
2022/09/19 12:48:01;;;;;;;6.75;1.05;;;;;;;17.33;51.39;100557.44;10429226;28;20126;-76
2022/09/19 12:53:32;;;;;;;5.75;1.17;;;;;;;16.30;53.58;100547.38;10424817;28;20553;-76
2022/09/19 12:59:00;;;;;;;7.40;1.80;;;;;;;17.59;52.61;100530.22;10433425;28;20096;-77
2022/09/19 13:04:27;;;;;;;5.25;1.25;;;;;;;18.40;49.30;100561.19;10431172;28;20362;-76
2022/09/19 13:09:37;;;;;;;5.05;0.70;;;;;;;16.93;52.66;100564.38;10421321;28;20043;-76
2022/09/19 13:14:46;;;;;;;15.60;2.03;;;;;;;17.01;51.97;100554.41;10415510;28;20080;-77
2022/09/19 13:25:18;;;;;;;3.40;0.63;;;;;;;20.26;43.74;100565.16;10440707;28;20041;-78
2022/09/19 13:30:50;;;;;;;3.92;0.90;;;;;;;19.06;43.94;100576.41;10440536;28;20120;-78
2022/09/19 13:35:53;;;;;;;6.07;1.00;;;;;;;16.61;49.56;100589.44;10431390;28;20084;-77
2022/09/19 13:41:04;;;;;;;2.80;0.75;;;;;;;16.90;50.10;100594.56;10438654;28;20073;-78
2022/09/19 13:46:16;;;;;;;5.20;0.80;;;;;;;16.51;51.37;100594.94;10470928;28;20068;-78
2022/09/19 13:51:30;;;;;;;5.87;0.87;;;;;;;16.29;51.57;100604.44;10432410;28;20110;-77
2022/09/19 13:56:37;;;;;;;1.58;0.60;;;;;;;16.79;51.08;100606.53;10473830;28;20049;-76
2022/09/19 14:01:54;;;;;;;3.38;0.45;;;;;;;16.68;48.84;100613.06;10432871;28;20056;-77
2022/09/19 14:07:00;;;;;;;2.35;0.55;;;;;;;17.40;47.06;100612.81;10428151;28;20087;-75
2022/09/19 14:13:03;;;;;;;1.73;0.60;;;;;;;16.71;48.78;100598.34;10439134;28;20053;-76
2022/09/19 14:18:33;;;;;;;;;;;;;;;17.70;47.53;100600.53;10415145;28;20075;-76
2022/09/19 14:23:39;;;;;;;3.88;0.70;;;;;;;17.89;47.91;100594.78;10433860;28;20017;-76
2022/09/19 14:29:02;;;;;;;2.78;0.80;;;;;;;17.35;48.88;100610.56;10437437;28;20041;-77
2022/09/19 14:34:32;;;;;;;6.95;0.90;;;;;;;13.45;74.59;100640.41;10441920;28;20106;-79
2022/09/19 14:40:09;;;;;;;7.07;1.23;;;;;;;12.13;86.31;100618.59;10423451;28;20068;-77
2022/09/19 14:45:49;;;;;;;4.38;1.02;;;;;;;11.71;87.07;100608.56;10448405;28;20383;-77
2022/09/19 14:50:55;;;;;;;7.35;0.95;;;;;;;11.12;82.81;100614.25;10419963;28;20052;-77
2022/09/19 14:56:01;;;;;;;9.40;1.35;;;;;;;11.14;87.09;100611.47;10431859;28;20128;-77
2022/09/19 15:01:08;;;;;;;4.57;1.08;;;;;;;10.68;87.19;100609.69;10463880;28;20076;-77
2022/09/19 15:06:17;;;;;;;9.13;1.67;;;;;;;9.77;90.18;100629.94;10457976;28;20135;-76
2022/09/19 15:11:22;;;;;;;5.65;1.25;;;;;;;9.63;96.33;100617.53;10425494;28;20050;-76
2022/09/19 15:16:26;;;;;;;8.77;1.60;;;;;;;11.10;95.82;100624.25;10430911;28;20047;-74
2022/09/19 15:21:34;;;;;;;9.48;1.27;;;;;;;11.81;95.38;100623.94;10469363;28;20547;-77
2022/09/19 15:26:45;;;;;;;7.65;1.10;;;;;;;12.94;95.95;100611.63;10445355;28;20508;-74
2022/09/19 15:31:50;;;;;;;5.90;1.30;;;;;;;11.89;90.15;100692.31;10450737;28;20048;-75
2022/09/19 15:36:55;;;;;;;6.05;1.15;;;;;;;10.21;94.78;100713.53;10450465;28;20037;-76
2022/09/19 15:41:59;;;;;;;8.70;1.27;;;;;;;9.56;96.79;100677.94;10422642;28;20049;-76
2022/09/19 15:47:05;;;;;;;6.85;1.00;;;;;;;9.80;97.25;100669.94;10429396;28;20077;-74
2022/09/19 15:52:13;;;;;;;3.17;1.13;;;;;;;10.05;97.41;100654.75;10429566;28;20421;-76
2022/09/19 15:57:33;;;;;;;13.10;1.70;;;;;;;10.38;98.25;100645.97;10427075;28;20120;-73
2022/09/19 16:02:40;;;;;;;6.70;1.40;;;;;;;10.75;94.18;100649.38;10422422;28;20071;-75
2022/09/19 16:13:40;;;;;;;7.95;1.10;;;;;;;12.39;95.53;100667.56;10436195;28;20041;-74
2022/09/19 16:18:49;;;;;;;3.30;0.80;;;;;;;11.84;92.10;100685.59;10430857;28;20471;-75
2022/09/19 16:23:52;;;;;;;2.92;0.90;;;;;;;11.85;94.95;100688.19;10421356;28;20276;-75
2022/09/19 16:28:56;;;;;;;5.97;1.70;;;;;;;12.06;94.95;100701.69;10433452;28;20036;-76
2022/09/19 16:34:02;;;;;;;10.30;1.92;;;;;;;12.17;94.27;100704.34;10434800;28;20132;-76
2022/09/19 16:39:22;;;;;;;6.15;1.50;;;;;;;11.92;92.66;100708.22;10429312;28;20129;-76
2022/09/19 16:44:33;;;;;;;7.22;1.98;;;;;;;11.80;93.03;100708.38;10437426;28;20041;-76
2022/09/19 16:49:36;;;;;;;7.10;2.22;;;;;;;11.67;92.36;100701.28;10432956;28;20034;-76
2022/09/19 16:54:39;;;;;;;13.70;2.83;;;;;;;11.47;92.38;100700.19;10429463;28;20049;-76
2022/09/19 16:59:43;;;;;;;;;;;;;;;11.45;92.69;100706.66;10438552;28;20204;-77
2022/09/19 17:04:46;;;;;;;9.13;6.57;;;;;;;11.41;92.65;100713.25;10443233;28;19921;-77
2022/09/19 17:09:49;;;;;;;7.00;3.47;;;;;;;11.25;92.13;100719.00;10459177;28;20052;-75
2022/09/19 17:14:54;;;;;;;12.15;5.07;;;;;;;11.29;92.92;100723.16;10483013;28;20045;-75
2022/09/19 17:19:56;;;;;;;11.68;2.50;;;;;;;11.35;92.45;100732.56;10461396;28;20049;-77
2022/09/19 17:24:59;;;;;;;;;;;;;;;10.87;91.26;100736.25;10436660;28;20116;-77
2022/09/19 17:30:04;;;;;;;10.55;2.55;;;;;;;11.04;92.62;100751.06;10439577;28;20020;-76
2022/09/19 17:35:14;;;;;;;8.82;2.50;;;;;;;10.80;92.40;100743.91;10446039;28;20045;-77
2022/09/19 17:40:17;;;;;;;6.38;1.73;;;;;;;10.64;91.80;100750.56;10448461;28;20434;-77
2022/09/19 17:45:23;;;;;;;9.98;1.63;;;;;;;10.65;90.67;100758.53;10439727;28;20126;-77
2022/09/19 17:50:26;;;;;;;9.40;1.33;;;;;;;10.33;91.42;100756.41;10431612;28;20065;-77
2022/09/19 17:55:29;;;;;;;4.57;1.20;;;;;;;10.74;92.50;100765.88;10433984;28;20125;-76
2022/09/19 18:00:33;;;;;;;4.60;1.27;;;;;;;10.97;92.40;100772.22;10446159;28;20557;-77
2022/09/19 18:05:36;;;;;;;10.25;1.63;;;;;;;10.92;91.77;100763.63;10435046;28;20045;-77
2022/09/19 18:10:39;;;;;;;5.93;1.92;;;;;;;10.94;90.58;100766.19;10488621;28;20038;-78
2022/09/19 18:15:46;;;;;;;6.68;1.40;;;;;;;10.81;90.13;100771.66;10480195;28;20044;-78
2022/09/19 18:20:57;;;;;;;7.40;1.75;;;;;;;10.66;90.44;100783.56;10449321;28;20050;-77
2022/09/19 18:26:01;;;;;;;6.82;2.45;;;;;;;10.64;90.24;100788.19;10460396;28;20063;-78
2022/09/19 18:31:07;;;;;;;7.25;1.85;;;;;;;10.61;91.02;100791.97;10448187;28;20083;-79
2022/09/19 18:36:14;;;;;;;6.63;2.00;;;;;;;10.50;90.33;100795.44;10449945;28;20045;-77
2022/09/19 18:41:18;;;;;;;11.13;2.13;;;;;;;10.42;89.72;100794.31;10446595;28;20037;-79
2022/09/19 18:46:24;;;;;;;8.48;2.00;;;;;;;10.37;90.03;100790.13;10468207;28;20075;-76
2022/09/19 18:51:29;;;;;;;14.85;2.40;;;;;;;10.43;90.89;100787.97;10454565;28;20056;-78
2022/09/19 18:56:32;;;;;;;11.18;2.67;;;;;;;10.44;90.56;100795.91;10454142;28;20044;-78
2022/09/19 19:01:38;;;;;;;11.20;2.97;;;;;;;10.38;90.56;100797.22;10442315;28;20037;-78
2022/09/19 19:06:41;;;;;;;11.93;3.05;;;;;;;10.39;90.17;100798.94;10436320;28;20044;-78
2022/09/19 19:11:44;;;;;;;;;;;;;;;10.33;90.83;100807.44;10444910;28;20072;-77
2022/09/19 19:16:49;;;;;;;15.55;4.28;;;;;;;10.07;90.74;100803.13;10446721;28;19921;-79
2022/09/19 19:21:52;;;;;;;14.05;4.13;;;;;;;9.97;90.64;100805.59;10447713;28;20045;-77
2022/09/19 19:26:55;;;;;;;16.45;4.30;;;;;;;9.93;90.23;100802.28;10441862;28;20122;-76
2022/09/19 19:32:01;;;;;;;19.85;5.03;;;;;;;9.88;89.79;100806.28;10433555;28;20120;-77
2022/09/19 19:37:04;;;;;;;16.88;4.57;;;;;;;9.88;89.36;100808.97;10435446;28;20049;-77
2022/09/19 19:42:07;;;;;;;19.63;5.57;;;;;;;9.89;89.04;100807.97;10424896;28;20037;-78
2022/09/19 19:47:11;;;;;;;17.48;4.20;;;;;;;9.64;88.96;100815.03;10437833;28;20128;-78
2022/09/19 19:52:20;;;;;;;18.85;4.05;;;;;;;9.74;89.36;100804.53;10457163;28;20100;-77
2022/09/19 19:57:26;;;;;;;13.80;3.33;;;;;;;9.59;89.04;100810.97;10439785;28;20045;-78
2022/09/19 20:02:30;;;;;;;18.13;3.40;;;;;;;9.45;89.04;100812.78;10431635;28;20048;-77
2022/09/19 20:07:35;;;;;;;14.80;4.07;;;;;;;9.49;89.87;100803.59;10454539;28;20077;-78
2022/09/19 20:12:37;;;;;;;10.38;2.92;;;;;;;9.36;90.04;100804.53;10437541;28;20069;-78
2022/09/19 20:17:41;;;;;;;;;;;;;;;9.19;90.96;100803.03;10439844;28;20128;-78
2022/09/19 20:22:45;;;;;;;14.30;2.90;;;;;;;9.10;91.12;100800.97;10438861;28;19950;-77
2022/09/19 20:27:48;;;;;;;13.68;2.72;;;;;;;9.03;91.03;100806.75;10470473;28;20045;-76
2022/09/19 20:32:54;;;;;;;11.50;2.25;;;;;;;9.28;90.09;100805.91;10431021;28;20121;-77
2022/09/19 20:37:56;;;;;;;10.82;2.80;;;;;;;9.59;88.89;100797.56;10439513;28;20128;-75
2022/09/19 20:42:59;;;;;;;;;;;;;;;9.75;88.63;100797.34;10432851;28;20101;-74
2022/09/19 20:48:04;;;;;;;11.68;2.75;;;;;;;9.46;89.01;100803.81;10473368;28;19932;-76
2022/09/19 20:53:07;;;;;;;17.30;2.67;;;;;;;9.81;88.15;100813.84;10457139;28;20414;-76
2022/09/19 20:58:10;;;;;;;;;;;;;;;9.69;87.89;100806.69;10435868;28;20415;-77
2022/09/19 21:03:14;;;;;;;12.38;2.85;;;;;;;9.66;88.27;100813.13;10431021;28;20483;-77
2022/09/19 21:08:17;;;;;;;7.38;2.28;;;;;;;9.51;87.62;100811.50;10430100;28;20096;-77
2022/09/19 21:13:19;;;;;;;;;;;;;;;9.49;86.65;100814.31;10427064;28;20049;-77
2022/09/19 21:18:24;;;;;;;18.13;2.08;;;;;;;9.61;87.00;100817.09;10444769;28;19924;-78
2022/09/19 21:23:27;;;;;;;9.48;1.70;;;;;;;9.20;86.59;100824.34;10464783;28;20075;-77
2022/09/19 21:28:31;;;;;;;14.45;2.20;;;;;;;9.25;86.30;100816.00;10442244;28;20076;-77
2022/09/19 21:33:35;;;;;;;11.35;1.70;;;;;;;9.29;86.84;100814.81;10431240;28;20069;-78
2022/09/19 21:38:38;;;;;;;6.07;1.55;;;;;;;9.48;86.35;100815.25;10441851;28;20510;-76
2022/09/19 21:43:43;;;;;;;8.30;2.22;;;;;;;9.66;86.86;100809.59;10442679;28;20045;-77
2022/09/19 21:48:48;;;;;;;10.70;1.65;;;;;;;9.67;86.65;100813.97;10445797;28;20038;-79
2022/09/19 21:53:52;;;;;;;13.35;1.52;;;;;;;9.66;86.64;100817.63;10447253;28;20091;-79
2022/09/19 21:58:56;;;;;;;15.15;3.17;;;;;;;9.44;86.06;100819.13;10441882;28;20060;-76
2022/09/19 22:04:00;;;;;;;12.00;2.03;;;;;;;9.13;85.54;100816.81;10442929;28;20093;-78
2022/09/19 22:09:04;;;;;;;19.65;2.40;;;;;;;9.29;86.64;100817.50;10429099;28;20160;-79
2022/09/19 22:14:07;;;;;;;17.90;2.85;;;;;;;9.57;85.67;100810.22;10439569;28;20068;-79
2022/09/19 22:19:11;;;;;;;;;;;;;;;9.25;85.97;100816.84;10430265;28;20115;-77
2022/09/19 22:24:14;;;;;;;6.95;1.50;;;;;;;9.38;85.75;100819.56;10439173;28;19959;-77
2022/09/19 22:29:16;;;;;;;;;;;;;;;9.29;85.51;100822.84;10449562;28;20051;-77
2022/09/19 22:34:21;;;;;;;8.68;1.20;;;;;;;9.26;85.33;100821.25;10433440;28;20026;-77
2022/09/19 22:39:24;;;;;;;17.20;1.65;;;;;;;9.21;84.93;100815.34;10432249;28;20068;-77
2022/09/19 22:44:29;;;;;;;;;;;;;;;8.55;85.60;100811.72;10435483;28;20112;-77
2022/09/19 22:49:33;;;;;;;9.93;1.50;;;;;;;9.26;84.26;100813.19;10439066;28;19928;-77
2022/09/19 22:54:36;;;;;;;8.18;1.80;;;;;;;9.54;82.27;100818.47;10448945;28;20045;-77
2022/09/19 22:59:39;;;;;;;;;;;;;;;9.12;82.52;100821.34;10427046;28;20098;-77
2022/09/19 23:04:43;;;;;;;9.05;1.58;;;;;;;9.32;81.21;100822.66;10436257;28;19920;-76
2022/09/19 23:09:46;;;;;;;10.82;2.00;;;;;;;9.10;81.96;100831.28;10435808;28;20431;-77
2022/09/19 23:14:49;;;;;;;8.00;1.60;;;;;;;9.27;82.71;100836.38;10427683;28;20529;-77
2022/09/19 23:19:53;;;;;;;9.25;1.50;;;;;;;9.49;81.96;100837.59;10436969;28;20869;-77
2022/09/19 23:24:56;;;;;;;15.20;1.90;;;;;;;9.29;82.30;100838.94;10431529;28;20045;-76
2022/09/19 23:29:58;;;;;;;;;;;;;;;9.19;82.94;100837.88;10430742;28;20537;-77
2022/09/19 23:35:03;;;;;;;15.40;1.80;;;;;;;9.32;83.03;100838.72;10437681;28;19928;-77
2022/09/19 23:40:07;;;;;;;13.45;1.83;;;;;;;9.31;82.30;100831.66;10429910;28;20490;-78
2022/09/19 23:45:10;;;;;;;9.10;1.67;;;;;;;9.32;82.77;100835.19;10439375;28;20049;-77
2022/09/19 23:50:14;;;;;;;;;;;;;;;9.28;82.69;100831.88;10423868;28;20041;-77
2022/09/19 23:55:17;;;;;;;10.45;1.98;;;;;;;9.02;82.66;100831.84;10466681;28;19980;-77
